Time;durP1;ratioP1;P1;durP2;ratioP2;P2;SDS_P1;SDS_P2;PMS_P1;PMS_P2;Temp;Humidity;BMP_temperature;BMP_pressure;BME280_temperature;BME280_humidity;BME280_pressure;Samples;Min_cycle;Max_cycle;Signal;HPM_P1;HPM_P2
2022/11/14 00:03:43;;;;;;;18.52;10.00;;;;;;;;;;10502146;28;20245;-67
2022/11/14 00:09:03;;;;;;;14.60;8.48;;;;;;;;;;10505117;28;20228;-68
2022/11/14 00:14:23;;;;;;;17.48;8.43;;;;;;;;;;10500492;28;20222;-68
2022/11/14 00:19:42;;;;;;;16.92;9.18;;;;;;;;;;10498997;28;20320;-69
2022/11/14 00:25:03;;;;;;;19.08;9.68;;;;;;;;;;10504199;28;20213;-69
2022/11/14 00:30:22;;;;;;;17.27;8.60;;;;;;;;;;10499793;28;20214;-68
2022/11/14 00:35:49;;;;;;;12.02;8.00;;;;;;;;;;10502873;28;20210;-68
2022/11/14 00:41:09;;;;;;;12.13;7.03;;;;;;;;;;10490112;28;20221;-67
2022/11/14 00:46:28;;;;;;;16.88;7.78;;;;;;;;;;10503869;28;20214;-68
2022/11/14 00:51:48;;;;;;;14.77;6.90;;;;;;;;;;10500029;28;20209;-68
2022/11/14 00:57:08;;;;;;;10.85;5.82;;;;;;;;;;10497991;28;20222;-67
2022/11/14 01:02:28;;;;;;;8.50;5.97;;;;;;;;;;10503478;28;20598;-67
2022/11/14 01:07:48;;;;;;;7.40;5.88;;;;;;;;;;10501251;28;20209;-68
2022/11/14 01:13:09;;;;;;;9.07;5.63;;;;;;;;;;10490145;28;20633;-68
2022/11/14 01:18:29;;;;;;;7.93;5.80;;;;;;;;;;10488857;28;20226;-67
2022/11/14 01:23:48;;;;;;;8.50;4.68;;;;;;;;;;10499402;28;20743;-68
2022/11/14 01:29:08;;;;;;;9.93;5.95;;;;;;;;;;10500190;28;20218;-68
2022/11/14 01:34:28;;;;;;;12.63;6.10;;;;;;;;;;10502076;28;20709;-68
2022/11/14 01:39:48;;;;;;;12.70;6.63;;;;;;;;;;10500161;28;20214;-67
2022/11/14 01:45:26;;;;;;;14.93;7.32;;;;;;;;;;10486669;28;20206;-68
2022/11/14 01:50:49;;;;;;;17.52;8.75;;;;;;;;;;10498639;28;20318;-68
2022/11/14 01:56:11;;;;;;;13.43;9.10;;;;;;;;;;10498486;28;20222;-68
2022/11/14 02:01:32;;;;;;;17.02;9.43;;;;;;;;;;10486577;28;20210;-67
2022/11/14 02:06:53;;;;;;;20.85;9.57;;;;;;;;;;10496921;28;20229;-67
2022/11/14 02:12:14;;;;;;;17.23;8.98;;;;;;;;;;10494638;28;20218;-69
2022/11/14 02:17:34;;;;;;;20.55;8.48;;;;;;;;;;10471597;28;20815;-68
2022/11/14 02:22:54;;;;;;;30.65;7.20;;;;;;;;;;10487809;28;20347;-68
2022/11/14 02:28:14;;;;;;;26.98;10.15;;;;;;;;;;10477216;28;20687;-69
2022/11/14 02:33:34;;;;;;;12.68;8.02;;;;;;;;;;10475673;28;20679;-68
2022/11/14 02:38:54;;;;;;;30.92;11.13;;;;;;;;;;10475563;28;20214;-67
2022/11/14 02:44:14;;;;;;;16.33;9.05;;;;;;;;;;10490479;28;20220;-67
2022/11/14 02:49:34;;;;;;;30.77;10.82;;;;;;;;;;10491516;28;20687;-68
2022/11/14 02:54:54;;;;;;;19.02;9.77;;;;;;;;;;10492751;28;20437;-67
2022/11/14 03:00:14;;;;;;;23.38;9.20;;;;;;;;;;10474626;28;20305;-67
2022/11/14 03:05:33;;;;;;;18.35;9.07;;;;;;;;;;10490827;28;20209;-68
2022/11/14 03:10:54;;;;;;;23.73;10.80;;;;;;;;;;10481421;28;20247;-69
2022/11/14 03:16:13;;;;;;;24.15;10.93;;;;;;;;;;10496001;28;20209;-69
2022/11/14 03:21:33;;;;;;;21.35;10.40;;;;;;;;;;10496278;28;20248;-69
2022/11/14 03:26:53;;;;;;;24.63;11.30;;;;;;;;;;10497751;28;20726;-69
2022/11/14 03:32:13;;;;;;;22.65;10.93;;;;;;;;;;10498201;28;20210;-70
2022/11/14 03:37:33;;;;;;;22.10;10.07;;;;;;;;;;10487330;28;20248;-68
2022/11/14 03:42:53;;;;;;;29.50;12.57;;;;;;;;;;10496409;28;20992;-67
2022/11/14 03:48:13;;;;;;;28.55;14.00;;;;;;;;;;10482088;28;20246;-69
2022/11/14 03:53:32;;;;;;;28.17;12.65;;;;;;;;;;10506127;28;20221;-69
2022/11/14 03:58:52;;;;;;;24.55;13.05;;;;;;;;;;10487412;28;20587;-68
2022/11/14 04:04:12;;;;;;;26.90;13.25;;;;;;;;;;10501408;28;20241;-68
2022/11/14 04:09:32;;;;;;;28.00;13.52;;;;;;;;;;10503589;28;20608;-69
2022/11/14 04:14:52;;;;;;;28.95;14.95;;;;;;;;;;10482522;28;20217;-69
2022/11/14 04:20:12;;;;;;;30.15;13.15;;;;;;;;;;10502238;28;20764;-69
2022/11/14 04:25:32;;;;;;;24.48;12.88;;;;;;;;;;10503025;28;20209;-69
2022/11/14 04:30:51;;;;;;;36.30;14.32;;;;;;;;;;10497898;28;20579;-68
2022/11/14 04:36:11;;;;;;;31.55;14.60;;;;;;;;;;10498601;28;20214;-68
2022/11/14 04:41:31;;;;;;;30.20;13.52;;;;;;;;;;10501369;28;20236;-68
2022/11/14 04:46:51;;;;;;;35.88;15.48;;;;;;;;;;10503257;28;20206;-69
2022/11/14 04:52:11;;;;;;;26.23;13.55;;;;;;;;;;10500513;28;20209;-69
2022/11/14 04:57:31;;;;;;;30.83;14.57;;;;;;;;;;10503538;28;20297;-69
2022/11/14 05:02:51;;;;;;;33.13;15.13;;;;;;;;;;10500301;28;20305;-68
2022/11/14 05:08:10;;;;;;;33.10;14.75;;;;;;;;;;10497109;28;20208;-68
2022/11/14 05:13:30;;;;;;;33.30;15.50;;;;;;;;;;10488311;28;20696;-68
2022/11/14 05:18:52;;;;;;;39.05;14.73;;;;;;;;;;10498233;28;20233;-68
2022/11/14 05:24:12;;;;;;;34.17;13.73;;;;;;;;;;10487390;28;20217;-70
2022/11/14 05:29:32;;;;;;;33.50;14.98;;;;;;;;;;10488479;28;20297;-68
2022/11/14 05:34:52;;;;;;;33.83;16.15;;;;;;;;;;10495444;28;20217;-67
2022/11/14 05:40:12;;;;;;;32.30;16.13;;;;;;;;;;10494061;28;20213;-67
2022/11/14 05:45:31;;;;;;;35.55;16.50;;;;;;;;;;10499887;28;20210;-68
2022/11/14 05:50:58;;;;;;;37.05;16.77;;;;;;;;;;10494730;28;20225;-68
2022/11/14 05:56:18;;;;;;;32.38;13.93;;;;;;;;;;10492113;28;20252;-67
2022/11/14 06:01:38;;;;;;;34.83;14.38;;;;;;;;;;10492749;28;20210;-67
2022/11/14 06:06:58;;;;;;;30.75;13.27;;;;;;;;;;10481007;28;20202;-69
2022/11/14 06:12:18;;;;;;;32.78;15.35;;;;;;;;;;10480017;28;20589;-68
2022/11/14 06:17:37;;;;;;;27.88;13.68;;;;;;;;;;10495425;28;20320;-69
2022/11/14 06:22:57;;;;;;;32.63;14.38;;;;;;;;;;10496392;28;20700;-68
2022/11/14 06:28:17;;;;;;;32.53;14.23;;;;;;;;;;10493879;28;20210;-68
2022/11/14 06:33:37;;;;;;;26.88;13.23;;;;;;;;;;10493538;28;20232;-68
2022/11/14 06:38:57;;;;;;;34.80;13.80;;;;;;;;;;10486210;28;21132;-69
2022/11/14 06:44:16;;;;;;;31.33;14.63;;;;;;;;;;10490615;28;20316;-70
2022/11/14 06:49:36;;;;;;;27.48;13.07;;;;;;;;;;10491597;28;20213;-67
2022/11/14 06:54:56;;;;;;;28.30;14.15;;;;;;;;;;10501480;28;20209;-67
2022/11/14 07:00:16;;;;;;;27.15;11.70;;;;;;;;;;10499467;28;20213;-70
2022/11/14 07:05:36;;;;;;;35.97;13.68;;;;;;;;;;10494043;28;20233;-69
2022/11/14 07:11:06;;;;;;;29.70;13.77;;;;;;;;;;10485611;28;20213;-69
2022/11/14 07:16:30;;;;;;;33.67;14.23;;;;;;;;;;10479429;28;20232;-69
2022/11/14 07:21:49;;;;;;;27.20;12.73;;;;;;;;;;10486478;28;20226;-69
2022/11/14 07:27:12;;;;;;;26.40;12.20;;;;;;;;;;10498499;28;20605;-69
2022/11/14 07:32:32;;;;;;;29.10;12.40;;;;;;;;;;10500205;28;20218;-69
2022/11/14 07:37:52;;;;;;;27.38;12.82;;;;;;;;;;10504965;28;20209;-69
2022/11/14 07:43:12;;;;;;;28.17;12.32;;;;;;;;;;10501340;28;20210;-69
2022/11/14 07:48:32;;;;;;;26.95;14.55;;;;;;;;;;10500142;28;20213;-69
2022/11/14 07:53:52;;;;;;;27.77;12.38;;;;;;;;;;10497727;28;20209;-69
2022/11/14 07:59:12;;;;;;;27.85;12.25;;;;;;;;;;10498600;28;20213;-69
2022/11/14 08:04:32;;;;;;;27.92;13.65;;;;;;;;;;10492040;28;20226;-69
2022/11/14 08:09:51;;;;;;;33.15;14.02;;;;;;;;;;10491870;28;20237;-67
2022/11/14 08:15:12;;;;;;;26.35;13.40;;;;;;;;;;10507309;28;20594;-67
2022/11/14 08:20:32;;;;;;;31.45;11.65;;;;;;;;;;10502291;28;20230;-68
2022/11/14 08:25:52;;;;;;;29.52;13.85;;;;;;;;;;10488720;28;20205;-68
2022/11/14 08:31:12;;;;;;;26.52;11.48;;;;;;;;;;10483941;28;20221;-68
2022/11/14 08:36:32;;;;;;;35.53;13.00;;;;;;;;;;10494114;28;20209;-68
2022/11/14 08:41:52;;;;;;;31.42;12.93;;;;;;;;;;10501268;28;20217;-70
2022/11/14 08:47:11;;;;;;;30.30;14.13;;;;;;;;;;10499112;28;20213;-68
2022/11/14 08:52:31;;;;;;;32.13;12.75;;;;;;;;;;10487243;28;20251;-68
2022/11/14 08:57:52;;;;;;;24.95;11.98;;;;;;;;;;10487049;28;20209;-67
2022/11/14 09:03:13;;;;;;;23.55;11.90;;;;;;;;;;10501670;28;20221;-67
2022/11/14 09:08:33;;;;;;;23.65;13.85;;;;;;;;;;10496342;28;20987;-68
2022/11/14 09:13:53;;;;;;;32.55;14.40;;;;;;;;;;10489481;28;20213;-68
2022/11/14 09:19:13;;;;;;;27.92;14.30;;;;;;;;;;10492403;28;20708;-66
2022/11/14 09:24:33;;;;;;;31.30;15.18;;;;;;;;;;10498061;28;23292;-67
2022/11/14 09:29:53;;;;;;;28.83;13.60;;;;;;;;;;10485671;28;20210;-67
2022/11/14 09:35:12;;;;;;;27.50;13.20;;;;;;;;;;10495623;28;20744;-67
2022/11/14 09:40:48;;;;;;;28.92;15.25;;;;;;;;;;10498077;28;20209;-67
2022/11/14 09:46:16;;;;;;;27.55;13.07;;;;;;;;;;10493802;28;20209;-68
2022/11/14 09:51:43;;;;;;;30.10;13.60;;;;;;;;;;10489646;28;20224;-70
2022/11/14 09:57:03;;;;;;;23.55;12.70;;;;;;;;;;10482857;28;20616;-70
2022/11/14 10:02:22;;;;;;;23.08;13.55;;;;;;;;;;10479744;28;20210;-70
2022/11/14 10:07:50;;;;;;;20.35;10.07;;;;;;;;;;10484682;28;20819;-70
2022/11/14 10:13:48;;;;;;;18.30;10.68;;;;;;;;;;10496673;28;20245;-70
2022/11/14 10:19:15;;;;;;;21.38;11.35;;;;;;;;;;10241369;28;20237;-70
2022/11/14 10:24:50;;;;;;;23.50;11.38;;;;;;;;;;10245528;28;20312;-70
2022/11/14 10:30:15;;;;;;;14.57;8.77;;;;;;;;;;10232134;28;20206;-68
2022/11/14 10:35:38;;;;;;;21.25;12.32;;;;;;;;;;10248149;28;20222;-69
2022/11/14 10:41:00;;;;;;;20.30;10.77;;;;;;;;;;10258209;28;20221;-71
2022/11/14 10:46:28;;;;;;;21.40;11.40;;;;;;;;;;10266832;28;20694;-70
2022/11/14 10:51:50;;;;;;;18.17;10.23;;;;;;;;;;10448309;28;20942;-69
2022/11/14 10:57:14;;;;;;;19.13;10.63;;;;;;;;;;10447691;28;21213;-69
2022/11/14 11:02:46;;;;;;;18.45;11.10;;;;;;;;;;10455979;28;20214;-68
2022/11/14 11:13:56;;;;;;;14.65;10.02;;;;;;;;;;10453549;28;20312;-69
2022/11/14 11:19:24;;;;;;;15.02;9.85;;;;;;;;;;10450984;28;20320;-70
2022/11/14 11:24:43;;;;;;;19.85;10.75;;;;;;;;;;10455900;28;21062;-70
2022/11/14 11:30:21;;;;;;;14.95;9.90;;;;;;;;;;10432091;28;20206;-71
2022/11/14 11:35:43;;;;;;;14.20;9.07;;;;;;;;;;10446261;28;20256;-70
2022/11/14 11:41:22;;;;;;;15.43;8.88;;;;;;;;;;10439892;28;20715;-71
2022/11/14 11:46:44;;;;;;;17.58;9.38;;;;;;;;;;10447341;28;20211;-70
2022/11/14 11:52:19;;;;;;;15.52;9.95;;;;;;;;;;10441719;28;20223;-70
2022/11/14 11:57:42;;;;;;;16.98;9.75;;;;;;;;;;10446229;28;20253;-70
2022/11/14 12:03:02;;;;;;;10.25;8.50;;;;;;;;;;10458560;28;20222;-68
2022/11/14 12:08:31;;;;;;;15.32;9.98;;;;;;;;;;10456262;28;20214;-70
2022/11/14 12:14:08;;;;;;;12.95;10.25;;;;;;;;;;10456093;28;20214;-70
2022/11/14 12:19:48;;;;;;;14.93;10.30;;;;;;;;;;10441097;28;20214;-70
2022/11/14 12:25:26;;;;;;;16.55;9.68;;;;;;;;;;10458086;28;20219;-70
2022/11/14 12:30:49;;;;;;;13.27;9.48;;;;;;;;;;10456880;28;20203;-70
2022/11/14 12:36:11;;;;;;;10.00;8.68;;;;;;;;;;10456827;28;20242;-70
2022/11/14 12:41:32;;;;;;;14.55;9.70;;;;;;;;;;10447297;28;20692;-70
2022/11/14 12:47:06;;;;;;;12.30;8.57;;;;;;;;;;10446516;28;20198;-69
2022/11/14 12:52:44;;;;;;;15.10;8.63;;;;;;;;;;10452427;28;20203;-70
2022/11/14 12:58:19;;;;;;;11.68;8.68;;;;;;;;;;10455169;28;20214;-70
2022/11/14 13:04:14;;;;;;;12.13;9.55;;;;;;;;;;10455705;28;20215;-70
2022/11/14 13:09:34;;;;;;;11.82;7.55;;;;;;;;;;10360798;28;20220;-70
2022/11/14 13:26:14;;;;;;;11.93;8.32;;;;;;;;;;10486434;28;20218;-70
2022/11/14 13:31:36;;;;;;;11.30;8.45;;;;;;;;;;10479621;28;20214;-69
2022/11/14 13:37:06;;;;;;;11.07;8.50;;;;;;;;;;10495773;28;20210;-71
2022/11/14 13:42:32;;;;;;;12.45;7.75;;;;;;;;;;10490903;28;20610;-70
2022/11/14 13:47:51;;;;;;;11.75;8.70;;;;;;;;;;10480235;28;20303;-67
2022/11/14 13:53:13;;;;;;;12.90;8.48;;;;;;;;;;10493219;28;20760;-70
2022/11/14 13:58:32;;;;;;;15.82;9.40;;;;;;;;;;10495952;28;20213;-67
2022/11/14 14:04:01;;;;;;;11.13;8.25;;;;;;;;;;10503587;28;20217;-68
2022/11/14 14:09:37;;;;;;;10.48;7.88;;;;;;;;;;10502833;28;20585;-69
2022/11/14 14:15:17;;;;;;;14.88;10.13;;;;;;;;;;10501154;28;20332;-69
2022/11/14 14:20:40;;;;;;;16.08;10.90;;;;;;;;;;10467713;28;20225;-68
2022/11/14 14:26:22;;;;;;;17.00;9.75;;;;;;;;;;10453544;28;20683;-70
2022/11/14 14:31:42;;;;;;;16.73;9.00;;;;;;;;;;10459010;28;20628;-69
2022/11/14 14:37:02;;;;;;;15.70;9.27;;;;;;;;;;10458575;28;20713;-70
2022/11/14 14:42:22;;;;;;;18.55;9.95;;;;;;;;;;10444817;28;20206;-71
2022/11/14 14:47:43;;;;;;;12.27;9.43;;;;;;;;;;10461261;28;20214;-70
2022/11/14 14:53:03;;;;;;;12.52;9.05;;;;;;;;;;10452586;28;20616;-70
2022/11/14 14:58:26;;;;;;;14.57;9.25;;;;;;;;;;10454704;28;20205;-70
2022/11/14 15:03:51;;;;;;;14.75;9.50;;;;;;;;;;10448027;28;20225;-70
2022/11/14 15:09:14;;;;;;;16.30;9.90;;;;;;;;;;10459339;28;20199;-70
2022/11/14 15:14:36;;;;;;;13.00;9.30;;;;;;;;;;10452899;28;20312;-69
2022/11/14 15:19:56;;;;;;;18.85;9.57;;;;;;;;;;10485710;28;20326;-70
2022/11/14 15:25:18;;;;;;;16.33;10.32;;;;;;;;;;10498755;28;20302;-71
2022/11/14 15:30:38;;;;;;;14.30;9.43;;;;;;;;;;10493225;28;20209;-71
2022/11/14 15:36:05;;;;;;;15.60;10.38;;;;;;;;;;10500591;28;20580;-69
2022/11/14 15:41:26;;;;;;;18.23;9.55;;;;;;;;;;10484114;28;20753;-70
2022/11/14 15:46:46;;;;;;;12.40;9.07;;;;;;;;;;10497847;28;20241;-69
2022/11/14 15:52:16;;;;;;;19.63;12.25;;;;;;;;;;10508983;28;20218;-68
2022/11/14 15:57:37;;;;;;;17.95;11.30;;;;;;;;;;10506142;28;20246;-70
2022/11/14 16:02:57;;;;;;;17.77;10.57;;;;;;;;;;10497371;28;20312;-69
2022/11/14 16:08:16;;;;;;;13.75;9.90;;;;;;;;;;10508445;28;20251;-69
2022/11/14 16:13:36;;;;;;;14.50;10.15;;;;;;;;;;10505559;28;20300;-69
2022/11/14 16:18:56;;;;;;;16.25;10.70;;;;;;;;;;10505009;28;20704;-68
2022/11/14 16:24:20;;;;;;;18.92;11.20;;;;;;;;;;10487270;28;20206;-68
2022/11/14 16:29:40;;;;;;;16.83;11.07;;;;;;;;;;10507263;28;20237;-68
2022/11/14 16:35:00;;;;;;;15.65;11.25;;;;;;;;;;10498267;28;20297;-69
2022/11/14 16:40:26;;;;;;;18.60;10.20;;;;;;;;;;10502809;28;20217;-70
2022/11/14 16:45:46;;;;;;;13.68;9.52;;;;;;;;;;10502781;28;20233;-70
2022/11/14 16:51:06;;;;;;;15.73;10.45;;;;;;;;;;10490975;28;20209;-70
2022/11/14 16:56:25;;;;;;;18.45;10.63;;;;;;;;;;10495333;28;20209;-68
2022/11/14 17:01:47;;;;;;;16.00;10.90;;;;;;;;;;10498671;28;20333;-70
2022/11/14 17:07:07;;;;;;;20.05;9.93;;;;;;;;;;10499075;28;20681;-69
2022/11/14 17:12:27;;;;;;;17.35;10.57;;;;;;;;;;10499132;28;20703;-69
2022/11/14 17:17:49;;;;;;;18.88;11.80;;;;;;;;;;10499221;28;20229;-68
2022/11/14 17:23:08;;;;;;;24.52;12.15;;;;;;;;;;10496232;28;20217;-69
2022/11/14 17:28:28;;;;;;;21.00;11.00;;;;;;;;;;10490351;28;20198;-69
2022/11/14 17:33:52;;;;;;;23.13;13.10;;;;;;;;;;10476138;28;20213;-67
2022/11/14 17:39:11;;;;;;;21.25;11.95;;;;;;;;;;10498253;28;20693;-66
2022/11/14 17:44:31;;;;;;;20.90;11.68;;;;;;;;;;10501363;28;20205;-63
2022/11/14 17:49:51;;;;;;;21.45;13.15;;;;;;;;;;10500984;28;20288;-64
2022/11/14 17:55:11;;;;;;;17.40;11.10;;;;;;;;;;10491060;28;20209;-64
2022/11/14 18:00:30;;;;;;;19.40;11.82;;;;;;;;;;10500803;28;20637;-63
2022/11/14 18:05:50;;;;;;;20.05;10.70;;;;;;;;;;10485960;28;20205;-63
2022/11/14 18:11:11;;;;;;;20.73;12.00;;;;;;;;;;10494333;28;20593;-64
2022/11/14 18:16:30;;;;;;;21.98;11.60;;;;;;;;;;10485970;28;20225;-69
2022/11/14 18:21:50;;;;;;;18.77;12.25;;;;;;;;;;10494029;28;20222;-67
2022/11/14 18:27:10;;;;;;;22.05;11.65;;;;;;;;;;10488031;28;20210;-66
2022/11/14 18:32:30;;;;;;;20.60;13.02;;;;;;;;;;10492971;28;20250;-65
2022/11/14 18:37:50;;;;;;;17.60;10.85;;;;;;;;;;10496283;28;20590;-65
2022/11/14 18:43:10;;;;;;;24.35;13.05;;;;;;;;;;10483582;28;20253;-65
2022/11/14 18:48:30;;;;;;;22.20;12.73;;;;;;;;;;10492383;28;20213;-66
2022/11/14 18:53:50;;;;;;;18.85;11.38;;;;;;;;;;10494785;28;20214;-66
2022/11/14 18:59:09;;;;;;;17.88;12.30;;;;;;;;;;10501682;28;20210;-68
2022/11/14 19:04:29;;;;;;;23.88;13.75;;;;;;;;;;10481829;28;20217;-67
2022/11/14 19:09:49;;;;;;;21.50;12.05;;;;;;;;;;10489364;28;20205;-66
2022/11/14 19:15:10;;;;;;;28.98;16.02;;;;;;;;;;10494460;28;20612;-68
2022/11/14 19:20:30;;;;;;;34.47;19.77;;;;;;;;;;10485523;28;20316;-69
2022/11/14 19:25:49;;;;;;;33.08;18.00;;;;;;;;;;10499845;28;20213;-65
2022/11/14 19:31:09;;;;;;;38.83;21.17;;;;;;;;;;10497391;28;20210;-68
2022/11/14 19:36:29;;;;;;;74.82;37.92;;;;;;;;;;10500919;28;20252;-68
2022/11/14 19:41:49;;;;;;;25.63;15.88;;;;;;;;;;10492740;28;20214;-67
2022/11/14 19:47:09;;;;;;;15.18;9.95;;;;;;;;;;10504876;28;20202;-63
2022/11/14 19:52:29;;;;;;;22.20;12.90;;;;;;;;;;10494658;28;20619;-67
2022/11/14 19:57:48;;;;;;;15.65;10.60;;;;;;;;;;10504692;28;20272;-66
2022/11/14 20:03:10;;;;;;;18.60;10.93;;;;;;;;;;10499627;28;20251;-65
2022/11/14 20:08:30;;;;;;;17.45;11.48;;;;;;;;;;10496685;28;20213;-67
2022/11/14 20:13:49;;;;;;;17.42;10.00;;;;;;;;;;10509081;28;20209;-66
2022/11/14 20:19:09;;;;;;;21.42;11.80;;;;;;;;;;10502580;28;20225;-65
2022/11/14 20:24:29;;;;;;;17.23;10.80;;;;;;;;;;10500924;28;20214;-68
2022/11/14 20:29:49;;;;;;;17.55;10.23;;;;;;;;;;10494071;28;20301;-68
2022/11/14 20:35:09;;;;;;;19.50;11.10;;;;;;;;;;10504862;28;20302;-66
2022/11/14 20:40:29;;;;;;;16.73;9.90;;;;;;;;;;10491555;28;20800;-66
2022/11/14 20:45:55;;;;;;;19.20;10.07;;;;;;;;;;10494211;28;20214;-65
2022/11/14 20:51:17;;;;;;;18.52;10.77;;;;;;;;;;10502802;28;21465;-69
2022/11/14 20:56:36;;;;;;;15.52;9.70;;;;;;;;;;10502917;28;20602;-67
2022/11/14 21:01:56;;;;;;;16.70;10.32;;;;;;;;;;10488086;28;20249;-68
2022/11/14 21:07:16;;;;;;;16.02;10.38;;;;;;;;;;10487201;28;20209;-67
2022/11/14 21:12:36;;;;;;;16.77;9.93;;;;;;;;;;10491955;28;20563;-67
2022/11/14 21:17:56;;;;;;;14.68;9.82;;;;;;;;;;10487516;28;20238;-67
2022/11/14 21:23:16;;;;;;;16.05;10.02;;;;;;;;;;10456512;28;20214;-65
2022/11/14 21:28:37;;;;;;;16.50;9.52;;;;;;;;;;10459972;28;20202;-66
2022/11/14 21:33:58;;;;;;;12.95;8.80;;;;;;;;;;10457336;28;20674;-66
2022/11/14 21:39:17;;;;;;;14.45;7.18;;;;;;;;;;10460387;28;20222;-66
2022/11/14 21:44:37;;;;;;;12.93;8.88;;;;;;;;;;10459472;28;20215;-64
2022/11/14 21:49:57;;;;;;;13.90;9.10;;;;;;;;;;10460539;28;20214;-66
2022/11/14 21:55:17;;;;;;;12.80;8.35;;;;;;;;;;10459634;28;20218;-66
2022/11/14 22:00:37;;;;;;;13.85;8.43;;;;;;;;;;10453764;28;20210;-67
2022/11/14 22:05:57;;;;;;;11.77;6.53;;;;;;;;;;10453670;28;20693;-66
2022/11/14 22:11:16;;;;;;;11.60;7.53;;;;;;;;;;10449340;28;20241;-66
2022/11/14 22:16:36;;;;;;;16.05;8.90;;;;;;;;;;10455036;28;20209;-66
2022/11/14 22:21:56;;;;;;;18.92;8.35;;;;;;;;;;10453768;28;20222;-66
2022/11/14 22:27:16;;;;;;;10.93;6.25;;;;;;;;;;10445166;28;20202;-66
2022/11/14 22:32:36;;;;;;;12.95;8.85;;;;;;;;;;10443644;28;20214;-66
2022/11/14 22:37:57;;;;;;;15.60;8.40;;;;;;;;;;10458820;28;20761;-66
2022/11/14 22:43:21;;;;;;;14.48;8.23;;;;;;;;;;10446651;28;20233;-66
2022/11/14 22:48:42;;;;;;;14.02;8.45;;;;;;;;;;10456620;28;20225;-67
2022/11/14 22:54:02;;;;;;;13.25;8.02;;;;;;;;;;10442416;28;20690;-66
2022/11/14 22:59:21;;;;;;;12.90;8.65;;;;;;;;;;10458829;28;20542;-66
2022/11/14 23:04:41;;;;;;;16.48;8.57;;;;;;;;;;10455788;28;20217;-67
2022/11/14 23:10:03;;;;;;;12.52;7.72;;;;;;;;;;10456427;28;20242;-65
2022/11/14 23:15:23;;;;;;;12.55;7.00;;;;;;;;;;10451863;28;20222;-65
2022/11/14 23:20:42;;;;;;;12.25;7.63;;;;;;;;;;10490764;28;20307;-66
2022/11/14 23:26:06;;;;;;;14.40;8.00;;;;;;;;;;10497058;28;20671;-66
2022/11/14 23:31:26;;;;;;;12.45;8.38;;;;;;;;;;10482281;28;20277;-66
2022/11/14 23:36:46;;;;;;;13.43;8.20;;;;;;;;;;10484950;28;20206;-66
2022/11/14 23:42:06;;;;;;;11.93;7.47;;;;;;;;;;10499275;28;20292;-66
2022/11/14 23:47:26;;;;;;;10.50;7.47;;;;;;;;;;10500590;28;20217;-66
2022/11/14 23:52:46;;;;;;;11.98;7.80;;;;;;;;;;10496144;28;20667;-68
2022/11/14 23:58:05;;;;;;;11.75;7.88;;;;;;;;;;10495723;28;20214;-68
